Feesburg, Ohio
Current Conditions -  °F | °C
As of 3:55 PM on Thursday 23 Oct 2014 (Local Time) from KFGX Reporting Station
Clear Clear  
Wind Chill: 58°   Ceiling: Unl
Heat Index: 58°   Visibility: 10mi
Dew Point: 42°   Wind: 3mph
Humidity: 54%   Direction: 300°WNW
Pressure: 30.16"   Gusts: NA
Location:  38.88°N, 84°W
Report Text: KFGX 231955Z AUTO 30003KT 10SM CLR 15/06 A3016 RMK AO2 T01460055
Loading
Personal Weather Stations






























Interactive Weather Map
Tropical Storm Tracking
New forecast layout! Learn more

10-Day Weather Forecast

Advertisements
Track Severe Weather on mobile